createdAt,value
2022-11-05T00:03:13.799Z,94.04
2022-11-05T00:10:42.689Z,94.11
2022-11-05T00:18:19.755Z,94.93
2022-11-05T00:20:54.223Z,95.17
2022-11-05T00:26:52.072Z,95.24
2022-11-05T00:29:19.383Z,95.53
2022-11-05T00:31:52.115Z,95.18
2022-11-05T00:34:47.472Z,95.29
2022-11-05T00:40:32.325Z,95.26
2022-11-05T00:43:21.202Z,95.40
2022-11-05T00:45:50.818Z,95.85
2022-11-05T00:49:18.912Z,95.70
2022-11-05T00:52:38.002Z,95.33
2022-11-05T00:55:05.561Z,95.12
2022-11-05T01:01:26.462Z,95.03
2022-11-05T01:04:28.764Z,95.42
2022-11-05T01:12:03.933Z,95.00
2022-11-05T01:14:31.379Z,95.43
2022-11-05T01:17:47.579Z,95.84
2022-11-05T01:21:58.001Z,95.16
2022-11-05T01:24:30.882Z,94.83
2022-11-05T01:26:58.521Z,95.44
2022-11-05T01:30:08.098Z,94.43
2022-11-05T01:32:52.554Z,94.41
2022-11-05T01:35:25.591Z,95.32
2022-11-05T01:54:27.045Z,95.49
2022-11-05T01:57:35.603Z,95.51
2022-11-05T02:00:07.636Z,95.31
2022-11-05T02:02:55.053Z,95.69
2022-11-05T02:12:48.191Z,95.81
2022-11-05T02:13:05.395Z,95.61
2022-11-05T02:16:51.244Z,95.24
2022-11-05T02:20:20.227Z,95.37
2022-11-05T02:28:31.543Z,95.36
2022-11-05T02:32:06.341Z,95.65
2022-11-05T02:35:50.929Z,95.49
2022-11-05T02:39:36.383Z,94.68
2022-11-05T02:43:23.034Z,95.35
2022-11-05T02:50:31.164Z,95.74
2022-11-05T02:53:00.925Z,95.89
2022-11-05T02:55:38.830Z,95.51
2022-11-05T02:58:12.542Z,95.30
2022-11-05T03:08:39.546Z,95.93
2022-11-05T03:11:57.843Z,95.50
2022-11-05T03:15:32.258Z,95.09
2022-11-05T03:18:39.196Z,95.42
2022-11-05T03:22:20.205Z,95.74
2022-11-05T03:25:15.973Z,95.23
2022-11-05T03:28:23.880Z,95.32
2022-11-05T03:31:01.845Z,95.32
2022-11-05T03:37:08.783Z,94.71
2022-11-05T03:42:52.454Z,94.22
2022-11-05T03:46:02.905Z,95.01
2022-11-05T03:48:43.163Z,95.00
2022-11-05T03:52:41.658Z,94.34
2022-11-05T03:55:18.111Z,94.68
2022-11-05T04:01:43.057Z,93.63
2022-11-05T04:05:04.979Z,93.60
2022-11-05T04:11:36.880Z,96.16
2022-11-05T04:14:09.940Z,95.67
2022-11-05T04:24:31.112Z,94.92
2022-11-05T04:27:05.522Z,94.83
2022-11-05T04:30:00.417Z,95.64
2022-11-05T04:32:30.285Z,94.24
2022-11-05T04:34:57.629Z,95.59
2022-11-05T04:37:28.014Z,95.61
2022-11-05T04:40:03.651Z,95.57
2022-11-05T04:42:30.995Z,95.17
2022-11-05T04:45:01.150Z,94.04
2022-11-05T04:47:28.510Z,94.13
2022-11-05T04:52:48.158Z,95.12
2022-11-05T04:55:15.933Z,94.21
2022-11-05T04:57:43.512Z,94.29
2022-11-05T05:00:11.712Z,95.93
2022-11-05T05:02:39.251Z,95.73
2022-11-05T05:05:09.728Z,95.57
2022-11-05T05:07:37.259Z,94.70
2022-11-05T05:10:13.477Z,95.08
2022-11-05T05:12:51.152Z,94.78
2022-11-05T05:15:20.830Z,95.34
2022-11-05T05:17:52.828Z,95.43
2022-11-05T05:20:41.930Z,94.91
2022-11-05T05:23:13.547Z,95.72
2022-11-05T05:25:40.630Z,95.80
2022-11-05T05:28:16.244Z,94.78
2022-11-05T05:31:03.602Z,94.58
2022-11-05T05:33:30.706Z,94.04
2022-11-05T05:36:09.972Z,94.25
2022-11-05T05:38:40.811Z,94.76
2022-11-05T05:41:07.992Z,94.58
2022-11-05T05:47:16.041Z,95.35
2022-11-05T05:50:03.542Z,94.44
2022-11-05T05:52:30.687Z,94.52
2022-11-05T05:55:35.825Z,94.81
2022-11-05T05:59:28.116Z,94.93
2022-11-05T06:02:58.257Z,94.53
2022-11-05T06:08:34.353Z,94.50
2022-11-05T06:14:43.556Z,94.75
2022-11-05T06:17:16.577Z,93.77
2022-11-05T06:20:12.139Z,93.86
2022-11-05T06:22:43.791Z,94.62
2022-11-05T06:25:11.296Z,94.50
2022-11-05T06:28:20.486Z,93.64
2022-11-05T06:30:53.453Z,94.44
2022-11-05T06:33:42.792Z,94.00
2022-11-05T06:36:16.866Z,93.54
2022-11-05T06:38:50.842Z,93.56
2022-11-05T06:41:18.299Z,93.64
2022-11-05T06:44:10.428Z,94.61
2022-11-05T06:46:43.312Z,93.56
2022-11-05T06:49:14.505Z,94.61
2022-11-05T06:51:47.301Z,94.01
2022-11-05T06:54:23.607Z,93.96
2022-11-05T06:56:54.611Z,94.05
2022-11-05T06:59:34.442Z,92.96
2022-11-05T07:02:36.821Z,93.45
2022-11-05T07:05:17.164Z,93.04
2022-11-05T07:07:45.774Z,93.49
2022-11-05T07:10:24.430Z,93.36
2022-11-05T07:12:56.865Z,93.57
2022-11-05T07:15:23.851Z,92.74
2022-11-05T07:17:51.025Z,93.40
2022-11-05T07:20:18.095Z,93.06
2022-11-05T07:22:45.366Z,92.66
2022-11-05T07:25:12.302Z,92.22
2022-11-05T07:27:40.192Z,92.54
2022-11-05T07:30:12.448Z,92.62
2022-11-05T07:32:40.846Z,92.55
2022-11-05T07:35:09.956Z,92.93
2022-11-05T07:37:51.908Z,92.95
2022-11-05T07:40:19.763Z,92.95
2022-11-05T07:42:50.915Z,92.85
2022-11-05T07:45:19.530Z,93.24
2022-11-05T07:47:57.257Z,93.15
2022-11-05T07:50:34.958Z,92.94
2022-11-05T07:53:11.104Z,93.39
2022-11-05T07:55:40.213Z,93.55
2022-11-05T07:58:07.538Z,93.46
2022-11-05T08:00:34.625Z,93.87
2022-11-05T08:03:17.503Z,93.45
2022-11-05T08:05:47.777Z,94.51
2022-11-05T08:08:18.773Z,93.51
2022-11-05T08:10:46.790Z,94.37
2022-11-05T08:13:15.391Z,94.52
2022-11-05T08:15:43.228Z,94.10
2022-11-05T08:18:17.932Z,93.97
2022-11-05T08:20:46.842Z,93.67
2022-11-05T08:23:14.409Z,94.03
2022-11-05T08:25:42.183Z,93.48
2022-11-05T08:28:13.126Z,94.29
2022-11-05T08:30:40.669Z,93.92
2022-11-05T08:33:19.349Z,94.07
2022-11-05T08:35:46.560Z,94.45
2022-11-05T08:38:17.093Z,94.46
2022-11-05T08:40:58.117Z,92.96
2022-11-05T08:43:25.708Z,93.67
2022-11-05T08:45:52.813Z,92.82
2022-11-05T08:48:19.900Z,92.66
2022-11-05T08:50:49.023Z,92.36
2022-11-05T08:53:17.286Z,92.21
2022-11-05T08:55:46.321Z,92.95
2022-11-05T08:58:17.369Z,91.93
2022-11-05T09:00:48.592Z,91.75
2022-11-05T09:03:16.618Z,91.49
2022-11-05T09:05:43.904Z,92.26
2022-11-05T09:08:15.847Z,91.25
2022-11-05T09:10:44.203Z,90.72
2022-11-05T09:13:18.325Z,91.34
2022-11-05T09:15:50.408Z,89.82
2022-11-05T09:18:19.598Z,89.52
2022-11-05T09:20:47.246Z,90.11
2022-11-05T09:23:15.592Z,89.62
2022-11-05T09:25:43.518Z,89.67
2022-11-05T09:28:22.673Z,89.59
2022-11-05T09:30:52.511Z,89.42
2022-11-05T09:33:24.945Z,88.42
2022-11-05T09:35:53.693Z,87.49
2022-11-05T09:38:47.317Z,88.60
2022-11-05T09:41:38.851Z,88.71
2022-11-05T09:44:35.911Z,88.81
2022-11-05T09:47:24.736Z,88.24
2022-11-05T09:49:57.128Z,89.06
2022-11-05T09:52:29.992Z,89.30
2022-11-05T09:55:31.847Z,88.63
2022-11-05T09:58:46.202Z,87.83
2022-11-05T10:01:37.495Z,87.47
2022-11-05T10:07:26.250Z,86.91
2022-11-05T10:11:14.653Z,86.29
2022-11-05T10:18:35.002Z,85.09
2022-11-05T10:21:10.113Z,84.16
2022-11-05T10:23:40.353Z,85.63
2022-11-05T10:26:47.960Z,83.96
2022-11-05T10:29:32.247Z,82.67
2022-11-05T10:32:10.574Z,82.48
2022-11-05T10:41:53.350Z,81.75
2022-11-05T10:48:45.963Z,79.86
2022-11-05T10:51:22.507Z,80.46
2022-11-05T10:54:12.161Z,79.44
2022-11-05T10:56:42.527Z,78.35
2022-11-05T10:59:32.139Z,78.14
2022-11-05T11:02:26.431Z,76.99
2022-11-05T11:05:36.071Z,76.31
2022-11-05T11:08:35.511Z,76.82
2022-11-05T11:11:51.117Z,75.96
2022-11-05T11:14:22.163Z,77.22
2022-11-05T11:20:44.075Z,74.92
2022-11-05T11:29:29.233Z,74.37
2022-11-05T11:32:01.086Z,74.45
2022-11-05T11:34:39.429Z,73.60
2022-11-05T11:37:35.672Z,72.51
2022-11-05T11:40:40.692Z,73.59
2022-11-05T11:43:28.660Z,74.16
2022-11-05T11:46:03.720Z,71.55
2022-11-05T11:48:43.875Z,71.05
2022-11-05T11:51:37.683Z,70.94
2022-11-05T11:54:28.543Z,72.37
2022-11-05T11:57:58.108Z,71.48
2022-11-05T12:01:47.911Z,72.88
2022-11-05T12:05:08.971Z,71.19
2022-11-05T12:08:21.668Z,70.60
2022-11-05T12:11:44.059Z,70.72
2022-11-05T12:15:18.804Z,72.19
2022-11-05T12:19:10.578Z,70.64
2022-11-05T12:22:27.165Z,69.67
2022-11-05T12:25:10.409Z,68.48
2022-11-05T12:28:06.389Z,69.86
2022-11-05T12:31:32.958Z,69.21
2022-11-05T12:34:30.594Z,70.89
2022-11-05T12:37:21.687Z,71.68
2022-11-05T12:40:29.751Z,72.82
2022-11-05T12:43:44.348Z,72.90
2022-11-05T12:47:01.580Z,71.93
2022-11-05T12:50:15.304Z,70.00
2022-11-05T12:53:17.441Z,70.05
2022-11-05T12:55:49.409Z,69.10
2022-11-05T12:58:41.115Z,70.32
2022-11-05T13:01:24.163Z,69.34
2022-11-05T13:04:27.159Z,68.90
2022-11-05T13:06:56.396Z,66.30
2022-11-05T13:09:30.995Z,67.50
2022-11-05T13:12:10.207Z,67.90
2022-11-05T13:14:49.482Z,70.23
2022-11-05T13:17:28.275Z,70.49
2022-11-05T13:20:25.255Z,72.55
2022-11-05T13:23:14.029Z,73.22
2022-11-05T13:25:53.481Z,73.75
2022-11-05T13:28:39.545Z,73.72
2022-11-05T13:31:15.809Z,73.69
2022-11-05T13:33:51.257Z,72.95
2022-11-05T13:36:46.953Z,71.50
2022-11-05T13:39:50.886Z,71.35
2022-11-05T13:43:39.414Z,71.70
2022-11-05T13:47:04.814Z,69.97
2022-11-05T13:50:15.106Z,69.37
2022-11-05T13:53:17.386Z,69.97
2022-11-05T13:56:39.073Z,70.72
2022-11-05T14:00:20.574Z,70.03
2022-11-05T14:03:24.987Z,71.04
2022-11-05T14:06:12.612Z,71.65
2022-11-05T14:08:45.169Z,72.40
2022-11-05T14:11:34.996Z,73.04
2022-11-05T14:14:15.905Z,73.57
2022-11-05T14:17:07.639Z,74.05
2022-11-05T14:20:07.013Z,73.67
2022-11-05T14:22:33.819Z,74.93
2022-11-05T14:25:24.214Z,74.53
2022-11-05T14:27:57.869Z,76.06
2022-11-05T14:30:47.909Z,75.00
2022-11-05T14:33:25.846Z,74.37
2022-11-05T14:36:45.838Z,75.25
2022-11-05T14:39:20.942Z,75.82
2022-11-05T14:42:30.933Z,74.33
2022-11-05T14:49:12.956Z,74.23
2022-11-05T14:51:48.096Z,74.73
2022-11-05T14:55:34.300Z,75.33
2022-11-05T15:02:15.315Z,76.50
2022-11-05T15:05:18.264Z,76.53
2022-11-05T15:08:15.752Z,77.27
2022-11-05T15:10:43.983Z,77.58
2022-11-05T15:13:40.608Z,78.05
2022-11-05T15:16:45.112Z,78.73
2022-11-05T15:19:37.365Z,79.08
2022-11-05T15:22:39.996Z,79.25
2022-11-05T15:29:28.612Z,80.19
2022-11-05T15:33:20.047Z,80.11
2022-11-05T15:36:26.714Z,80.56
2022-11-05T15:39:29.338Z,80.22
2022-11-05T15:42:04.946Z,80.29
2022-11-05T15:44:43.111Z,80.77
2022-11-05T15:47:36.468Z,81.53
2022-11-05T15:54:01.813Z,81.28
2022-11-05T15:56:48.012Z,81.66
2022-11-05T15:59:22.681Z,81.40
2022-11-05T16:02:33.944Z,81.88
2022-11-05T16:05:13.501Z,82.18
2022-11-05T16:07:46.138Z,82.58
2022-11-05T16:10:39.556Z,83.00
2022-11-05T16:13:38.501Z,83.33
2022-11-05T16:16:36.729Z,83.25
2022-11-05T16:19:42.370Z,82.82
2022-11-05T16:22:17.833Z,83.87
2022-11-05T16:24:46.593Z,84.25
2022-11-05T16:27:25.058Z,84.01
2022-11-05T16:29:57.280Z,84.53
2022-11-05T16:32:38.688Z,83.46
2022-11-05T16:35:18.387Z,84.97
2022-11-05T16:37:54.046Z,85.02
2022-11-05T16:40:25.987Z,85.29
2022-11-05T16:43:21.495Z,85.42
2022-11-05T16:45:59.652Z,85.51
2022-11-05T16:48:45.366Z,84.86
2022-11-05T16:51:23.343Z,84.03
2022-11-05T16:53:53.373Z,85.11
2022-11-05T16:56:28.062Z,86.16
2022-11-05T16:59:04.513Z,87.29
2022-11-05T17:01:32.500Z,87.04
2022-11-05T17:03:59.606Z,86.72
2022-11-05T17:06:26.729Z,86.58
2022-11-05T17:09:19.883Z,86.76
2022-11-05T17:11:46.915Z,87.71
2022-11-05T17:14:41.518Z,87.86
2022-11-05T17:17:15.490Z,87.24
2022-11-05T17:20:39.897Z,87.67
2022-11-05T17:23:15.662Z,87.68
2022-11-05T17:26:26.805Z,88.50
2022-11-05T17:29:02.437Z,88.47
2022-11-05T17:31:36.216Z,87.56
2022-11-05T17:34:09.721Z,87.23
2022-11-05T17:36:37.138Z,86.77
2022-11-05T17:39:10.036Z,88.12
2022-11-05T17:41:37.247Z,87.66
2022-11-05T17:44:04.246Z,87.59
2022-11-05T17:46:31.421Z,88.35
2022-11-05T17:49:02.869Z,88.12
2022-11-05T17:51:35.831Z,88.08
2022-11-05T17:54:11.806Z,88.68
2022-11-05T17:56:50.372Z,88.19
2022-11-05T17:59:20.717Z,87.59
2022-11-05T18:02:17.352Z,88.39
2022-11-05T18:04:50.644Z,88.44
2022-11-05T18:07:26.803Z,88.27
2022-11-05T18:09:59.165Z,88.67
2022-11-05T18:12:35.710Z,89.33
2022-11-05T18:16:01.708Z,88.50
2022-11-05T18:18:31.822Z,89.17
2022-11-05T18:21:00.300Z,88.74
2022-11-05T18:23:54.905Z,88.82
2022-11-05T18:26:21.849Z,89.03
2022-11-05T18:29:10.285Z,87.57
2022-11-05T18:31:40.338Z,88.09
2022-11-05T18:36:56.871Z,87.87
2022-11-05T18:39:25.697Z,88.60
2022-11-05T18:41:52.817Z,88.37
2022-11-05T18:44:27.801Z,88.69
2022-11-05T18:50:30.474Z,88.88
2022-11-05T18:54:25.244Z,89.90
2022-11-05T18:57:17.339Z,89.11
2022-11-05T19:00:40.868Z,89.66
2022-11-05T19:03:25.820Z,89.67
2022-11-05T19:06:22.441Z,89.17
2022-11-05T19:08:51.853Z,88.96
2022-11-05T19:11:27.748Z,89.41
2022-11-05T19:14:03.180Z,89.50
2022-11-05T19:16:35.119Z,89.09
2022-11-05T19:22:29.230Z,88.95
2022-11-05T19:28:39.398Z,89.76
2022-11-05T19:31:19.723Z,90.47
2022-11-05T19:33:49.337Z,89.15
2022-11-05T19:36:20.521Z,90.06
2022-11-05T19:38:53.243Z,90.50
2022-11-05T19:41:25.902Z,89.46
2022-11-05T19:43:57.014Z,89.01
2022-11-05T19:46:39.462Z,88.71
2022-11-05T19:49:07.123Z,88.13
2022-11-05T19:51:34.797Z,89.22
2022-11-05T19:54:11.634Z,88.95
2022-11-05T19:57:12.519Z,89.03
2022-11-05T19:59:45.574Z,89.28
2022-11-05T20:02:16.186Z,88.48
2022-11-05T20:04:49.548Z,88.90
2022-11-05T20:07:51.321Z,89.50
2022-11-05T20:10:45.771Z,90.33
2022-11-05T20:13:18.577Z,90.98
2022-11-05T20:15:50.064Z,91.59
2022-11-05T20:18:28.121Z,91.29
2022-11-05T20:21:09.151Z,90.35
2022-11-05T20:23:36.585Z,90.55
2022-11-05T20:26:11.954Z,90.68
2022-11-05T20:28:41.042Z,90.15
2022-11-05T20:31:17.641Z,90.71
2022-11-05T20:33:46.424Z,90.65
2022-11-05T20:36:19.164Z,89.49
2022-11-05T20:38:58.243Z,89.30
2022-11-05T20:41:26.453Z,89.44
2022-11-05T20:43:54.300Z,87.86
2022-11-05T20:46:23.413Z,88.05
2022-11-05T20:48:51.516Z,88.97
2022-11-05T20:51:22.933Z,90.93
2022-11-05T20:53:55.297Z,90.53
2022-11-05T20:56:27.110Z,90.13
2022-11-05T20:58:59.101Z,89.71
2022-11-05T21:01:30.400Z,90.21
2022-11-05T21:03:57.925Z,89.01
2022-11-05T21:06:25.018Z,90.21
2022-11-05T21:08:52.802Z,88.50
2022-11-05T21:11:20.739Z,89.63
2022-11-05T21:13:48.327Z,89.88
2022-11-05T21:16:18.967Z,90.06
2022-11-05T21:18:47.612Z,89.81
2022-11-05T21:21:20.168Z,90.80
2022-11-05T21:23:47.709Z,90.77
2022-11-05T21:26:16.902Z,90.31
2022-11-05T21:28:43.990Z,90.67
2022-11-05T21:31:13.939Z,90.36
2022-11-05T21:33:41.197Z,91.00
2022-11-05T21:36:12.943Z,91.65
2022-11-05T21:38:42.980Z,91.56
2022-11-05T21:41:11.693Z,89.58
2022-11-05T21:43:43.519Z,89.41
2022-11-05T21:46:13.338Z,90.67
2022-11-05T21:48:40.343Z,90.57
2022-11-05T21:51:31.328Z,92.58
2022-11-05T21:54:25.271Z,92.81
2022-11-05T21:57:11.204Z,92.13
2022-11-05T21:59:55.435Z,92.03
2022-11-05T22:02:28.542Z,91.80
2022-11-05T22:04:59.736Z,90.03
2022-11-05T22:07:41.313Z,89.71
2022-11-05T22:10:16.127Z,91.19
2022-11-05T22:12:44.893Z,91.18
2022-11-05T22:15:17.904Z,91.46
2022-11-05T22:17:47.130Z,91.50
2022-11-05T22:20:16.633Z,91.53
2022-11-05T22:22:43.951Z,91.53
2022-11-05T22:25:12.807Z,91.91
2022-11-05T22:27:39.867Z,91.97
2022-11-05T22:30:07.732Z,92.88
2022-11-05T22:32:34.968Z,92.49
2022-11-05T22:35:02.456Z,91.90
2022-11-05T22:37:29.995Z,91.97
2022-11-05T22:39:56.963Z,91.35
2022-11-05T22:42:23.962Z,91.67
2022-11-05T22:44:51.011Z,91.38
2022-11-05T22:47:18.270Z,90.95
2022-11-05T22:49:45.904Z,92.11
2022-11-05T22:52:12.853Z,92.60
2022-11-05T22:54:39.915Z,92.52
2022-11-05T22:57:06.892Z,91.90
2022-11-05T22:59:34.036Z,93.33
2022-11-05T23:02:06.549Z,92.07
2022-11-05T23:04:36.301Z,92.93
2022-11-05T23:07:27.313Z,92.64
2022-11-05T23:10:13.467Z,92.64
2022-11-05T23:12:44.277Z,91.75
2022-11-05T23:15:31.720Z,92.31
2022-11-05T23:18:17.242Z,91.89
2022-11-05T23:21:02.770Z,93.36
2022-11-05T23:23:48.109Z,92.22
2022-11-05T23:26:36.426Z,92.46
2022-11-05T23:29:06.592Z,92.53
2022-11-05T23:31:55.336Z,92.12
2022-11-05T23:34:22.260Z,92.89
2022-11-05T23:37:08.191Z,92.33
2022-11-05T23:39:41.276Z,91.33
2022-11-05T23:42:28.983Z,91.60
2022-11-05T23:45:15.067Z,92.26
2022-11-05T23:48:03.288Z,91.38
2022-11-05T23:50:35.562Z,92.16
2022-11-05T23:53:04.132Z,92.98
2022-11-05T23:55:31.466Z,93.03
2022-11-05T23:58:01.282Z,93.15
